Time;durP1;ratioP1;P1;durP2;ratioP2;P2;SDS_P1;SDS_P2;PMS_P1;PMS_P2;Temp;Humidity;BMP_temperature;BMP_pressure;BME280_temperature;BME280_humidity;BME280_pressure;Samples;Min_cycle;Max_cycle;Signal;HPM_P1;HPM_P2
2022/07/11 00:02:17;;;;;;;1.45;0.57;;;;;;;;;;5056024;28;20060;-89
2022/07/11 00:04:44;;;;;;;2.45;0.40;;;;;;;;;;5057164;28;20374;-87
2022/07/11 00:07:10;;;;;;;1.77;0.60;;;;;;;;;;5041858;28;20416;-89
2022/07/11 00:12:40;;;;;;;1.20;0.30;;;;;;;;;;5056043;28;20055;-87
2022/07/11 00:15:06;;;;;;;10.90;0.98;;;;;;;;;;5056463;28;20399;-87
2022/07/11 00:17:32;;;;;;;1.30;0.60;;;;;;;;;;5057424;28;20025;-88
2022/07/11 00:19:58;;;;;;;3.95;0.60;;;;;;;;;;5040944;28;20049;-88
2022/07/11 00:22:24;;;;;;;2.95;0.65;;;;;;;;;;5037923;28;20411;-88
2022/07/11 00:24:50;;;;;;;1.20;0.50;;;;;;;;;;5041549;28;20116;-88
2022/07/11 00:27:17;;;;;;;1.08;0.57;;;;;;;;;;5057730;28;20055;-87
2022/07/11 00:29:43;;;;;;;2.60;0.60;;;;;;;;;;5061145;28;20025;-87
2022/07/11 00:32:09;;;;;;;1.65;0.40;;;;;;;;;;5061257;28;20029;-88
2022/07/11 00:34:35;;;;;;;1.90;0.45;;;;;;;;;;5060168;28;20370;-90
2022/07/11 00:37:01;;;;;;;2.17;0.60;;;;;;;;;;5059808;28;20427;-90
2022/07/11 00:39:27;;;;;;;2.33;0.80;;;;;;;;;;5061047;28;20032;-89
2022/07/11 00:41:53;;;;;;;2.05;0.68;;;;;;;;;;5061128;28;20033;-89
2022/07/11 00:44:19;;;;;;;1.40;0.70;;;;;;;;;;5061370;28;20358;-89
2022/07/11 00:46:45;;;;;;;4.13;0.90;;;;;;;;;;5043574;28;20021;-89
2022/07/11 00:49:11;;;;;;;3.15;0.80;;;;;;;;;;5040859;28;20025;-88
2022/07/11 00:51:37;;;;;;;3.47;0.80;;;;;;;;;;5044138;28;20083;-87
2022/07/11 00:54:03;;;;;;;4.20;0.60;;;;;;;;;;5049807;28;20033;-88
2022/07/11 00:56:30;;;;;;;4.38;0.60;;;;;;;;;;5040832;28;20067;-88
2022/07/11 00:58:57;;;;;;;3.88;0.73;;;;;;;;;;5058553;28;20056;-88
2022/07/11 01:01:23;;;;;;;2.80;0.80;;;;;;;;;;5060399;28;20414;-89
2022/07/11 01:03:49;;;;;;;1.15;0.77;;;;;;;;;;5060712;28;20025;-87
2022/07/11 01:06:15;;;;;;;3.63;1.20;;;;;;;;;;5060791;28;20071;-88
2022/07/11 01:08:42;;;;;;;2.33;0.70;;;;;;;;;;5060706;28;20311;-89
2022/07/11 01:11:12;;;;;;;2.67;0.70;;;;;;;;;;5045893;28;20029;-87
2022/07/11 01:13:39;;;;;;;3.78;0.50;;;;;;;;;;5049333;28;20020;-86
2022/07/11 01:16:15;;;;;;;2.65;0.60;;;;;;;;;;5060679;28;20112;-87
2022/07/11 01:18:44;;;;;;;2.35;0.60;;;;;;;;;;5060600;28;20020;-87
2022/07/11 01:21:22;;;;;;;7.38;0.60;;;;;;;;;;5058489;28;20119;-88
2022/07/11 01:26:52;;;;;;;3.00;0.70;;;;;;;;;;5049425;28;20029;-87
2022/07/11 01:29:18;;;;;;;0.82;0.50;;;;;;;;;;5050505;28;20028;-87
2022/07/11 01:31:44;;;;;;;3.90;0.80;;;;;;;;;;5059800;28;20039;-87
2022/07/11 01:34:11;;;;;;;2.25;0.70;;;;;;;;;;5059598;28;20036;-87
2022/07/11 01:36:37;;;;;;;2.33;0.80;;;;;;;;;;5059996;28;20111;-86
2022/07/11 01:39:21;;;;;;;2.63;0.95;;;;;;;;;;5048185;28;20072;-88
2022/07/11 01:41:47;;;;;;;1.90;0.63;;;;;;;;;;5043356;28;20139;-88
2022/07/11 01:44:13;;;;;;;2.25;0.80;;;;;;;;;;5059551;28;20292;-87
2022/07/11 01:46:39;;;;;;;3.67;0.70;;;;;;;;;;5059755;28;20310;-87
2022/07/11 01:49:05;;;;;;;2.45;0.70;;;;;;;;;;5059483;28;20033;-88
2022/07/11 01:51:32;;;;;;;1.00;0.70;;;;;;;;;;5056797;28;20048;-87
2022/07/11 01:54:16;;;;;;;6.93;0.70;;;;;;;;;;5058313;28;20304;-89
2022/07/11 01:56:42;;;;;;;5.10;0.80;;;;;;;;;;5046245;28;20025;-89
2022/07/11 01:59:08;;;;;;;3.33;0.70;;;;;;;;;;5039825;28;20025;-89
2022/07/11 02:01:34;;;;;;;1.40;0.70;;;;;;;;;;5039775;28;20073;-88
2022/07/11 02:04:00;;;;;;;3.35;0.80;;;;;;;;;;5040021;28;20750;-87
2022/07/11 02:06:26;;;;;;;6.25;1.20;;;;;;;;;;5038862;28;20029;-86
2022/07/11 02:08:52;;;;;;;2.60;0.90;;;;;;;;;;5059051;28;20035;-87
2022/07/11 02:11:18;;;;;;;3.13;0.73;;;;;;;;;;5059283;28;20169;-88
2022/07/11 02:13:44;;;;;;;3.67;0.77;;;;;;;;;;5056696;28;20025;-87
2022/07/11 02:16:10;;;;;;;1.60;0.98;;;;;;;;;;5059099;28;20041;-86
2022/07/11 02:18:36;;;;;;;1.95;0.90;;;;;;;;;;5058146;28;20036;-86
2022/07/11 02:21:03;;;;;;;2.65;0.80;;;;;;;;;;5057604;28;20171;-87
2022/07/11 02:23:29;;;;;;;3.58;0.93;;;;;;;;;;5057474;28;20021;-89
2022/07/11 02:25:55;;;;;;;2.67;0.95;;;;;;;;;;5040620;28;20025;-89
2022/07/11 02:28:21;;;;;;;1.48;0.82;;;;;;;;;;5039196;28;20426;-86
2022/07/11 02:30:47;;;;;;;4.18;0.98;;;;;;;;;;5038994;28;20045;-86
2022/07/11 02:33:16;;;;;;;2.67;0.90;;;;;;;;;;5056945;28;20021;-88
2022/07/11 02:35:48;;;;;;;4.13;0.90;;;;;;;;;;5057354;28;20048;-88
2022/07/11 02:41:36;;;;;;;2.55;0.95;;;;;;;;;;5046754;28;20107;-88
2022/07/11 02:44:02;;;;;;;2.58;0.82;;;;;;;;;;5058244;28;20040;-87
2022/07/11 02:46:28;;;;;;;1.58;0.70;;;;;;;;;;5058282;28;20318;-88
2022/07/11 02:48:54;;;;;;;2.45;0.88;;;;;;;;;;5058660;28;20409;-87
2022/07/11 02:51:20;;;;;;;2.22;1.10;;;;;;;;;;5058550;28;20025;-89
2022/07/11 02:53:46;;;;;;;2.40;1.10;;;;;;;;;;5058439;28;20039;-90
2022/07/11 02:56:13;;;;;;;2.25;1.13;;;;;;;;;;5053466;28;20040;-91
2022/07/11 02:58:39;;;;;;;1.75;0.90;;;;;;;;;;5057836;28;20470;-90
2022/07/11 03:01:05;;;;;;;1.42;0.90;;;;;;;;;;5056244;28;20080;-91
2022/07/11 03:03:31;;;;;;;2.20;0.90;;;;;;;;;;5038763;28;20053;-91
2022/07/11 03:05:57;;;;;;;2.65;0.93;;;;;;;;;;5054670;28;20029;-90
2022/07/11 03:08:23;;;;;;;2.95;0.90;;;;;;;;;;5056993;28;20047;-88
2022/07/11 03:10:49;;;;;;;1.55;0.88;;;;;;;;;;5057890;28;20415;-88
2022/07/11 03:13:15;;;;;;;2.17;0.70;;;;;;;;;;5057273;28;20033;-89
2022/07/11 03:15:42;;;;;;;2.10;0.77;;;;;;;;;;5053662;28;20053;-90
2022/07/11 03:18:08;;;;;;;2.25;1.00;;;;;;;;;;5050349;28;20078;-90
2022/07/11 03:20:34;;;;;;;6.38;1.10;;;;;;;;;;5058270;28;20029;-90
2022/07/11 03:23:00;;;;;;;1.58;1.00;;;;;;;;;;5055045;28;20030;-90
2022/07/11 03:28:29;;;;;;;1.45;0.90;;;;;;;;;;5058019;28;20063;-88
2022/07/11 03:30:55;;;;;;;5.07;1.13;;;;;;;;;;5054197;28;20037;-88
2022/07/11 03:33:22;;;;;;;3.05;0.90;;;;;;;;;;5042374;28;20120;-88
2022/07/11 03:35:48;;;;;;;1.40;0.93;;;;;;;;;;5056274;28;20017;-90
2022/07/11 03:38:18;;;;;;;1.42;1.00;;;;;;;;;;5057667;28;20049;-91
2022/07/11 03:41:21;;;;;;;3.28;1.35;;;;;;;;;;5051841;28;20050;-88
2022/07/11 03:43:47;;;;;;;2.97;1.25;;;;;;;;;;5055601;28;20174;-88
2022/07/11 03:46:13;;;;;;;1.67;0.90;;;;;;;;;;5057842;28;20021;-89
2022/07/11 03:48:39;;;;;;;3.33;1.20;;;;;;;;;;5057629;28;20017;-90
2022/07/11 03:51:05;;;;;;;4.05;1.30;;;;;;;;;;5057687;28;20049;-88
2022/07/11 03:53:31;;;;;;;2.55;1.23;;;;;;;;;;5056276;28;20067;-89
2022/07/11 03:55:57;;;;;;;3.40;1.00;;;;;;;;;;5041505;28;20033;-89
2022/07/11 03:58:23;;;;;;;3.05;1.23;;;;;;;;;;5037801;28;20026;-88
2022/07/11 04:00:49;;;;;;;2.53;1.05;;;;;;;;;;5040045;28;20435;-88
2022/07/11 04:03:15;;;;;;;2.97;1.27;;;;;;;;;;5057149;28;20116;-88
2022/07/11 04:05:41;;;;;;;5.28;1.13;;;;;;;;;;5047469;28;20017;-88
2022/07/11 04:08:07;;;;;;;2.85;1.42;;;;;;;;;;5037051;28;20032;-87
2022/07/11 04:13:37;;;;;;;1.05;0.93;;;;;;;;;;5057353;28;20083;-86
2022/07/11 04:16:03;;;;;;;2.45;1.20;;;;;;;;;;5055696;28;20486;-87
2022/07/11 04:18:30;;;;;;;5.07;1.08;;;;;;;;;;5047031;28;20029;-87
2022/07/11 04:20:56;;;;;;;2.20;0.93;;;;;;;;;;5039630;28;20098;-87
2022/07/11 04:23:22;;;;;;;6.72;1.00;;;;;;;;;;5038743;28;20370;-87
2022/07/11 04:28:51;;;;;;;3.78;1.10;;;;;;;;;;5057148;28;20028;-87
2022/07/11 04:31:17;;;;;;;6.20;1.30;;;;;;;;;;5046261;28;20087;-89
2022/07/11 04:33:43;;;;;;;2.83;1.08;;;;;;;;;;5037516;28;20108;-87
2022/07/11 04:36:09;;;;;;;3.10;1.00;;;;;;;;;;5048368;28;20024;-88
2022/07/11 04:38:35;;;;;;;2.35;0.98;;;;;;;;;;5038707;28;20033;-87
2022/07/11 04:41:21;;;;;;;4.53;1.10;;;;;;;;;;5037414;28;20052;-88
2022/07/11 04:43:47;;;;;;;3.20;0.88;;;;;;;;;;5056030;28;20036;-88
2022/07/11 04:46:14;;;;;;;3.42;0.98;;;;;;;;;;5038285;28;20021;-88
2022/07/11 04:48:40;;;;;;;5.93;1.02;;;;;;;;;;5037088;28;20033;-88
2022/07/11 04:51:06;;;;;;;4.13;1.48;;;;;;;;;;5038697;28;20041;-88
2022/07/11 04:53:33;;;;;;;2.13;0.95;;;;;;;;;;5037612;28;20312;-89
2022/07/11 04:55:59;;;;;;;4.30;1.13;;;;;;;;;;5040970;28;20041;-88
2022/07/11 04:58:25;;;;;;;2.85;0.90;;;;;;;;;;5057023;28;20025;-88
2022/07/11 05:00:51;;;;;;;3.20;1.05;;;;;;;;;;5045342;28;20052;-89
2022/07/11 05:03:19;;;;;;;2.35;1.00;;;;;;;;;;5037305;28;20091;-85
2022/07/11 05:05:45;;;;;;;4.63;1.00;;;;;;;;;;5035688;28;20035;-81
2022/07/11 05:08:11;;;;;;;6.20;0.98;;;;;;;;;;5044539;28;20129;-81
2022/07/11 05:10:38;;;;;;;2.97;1.05;;;;;;;;;;5059752;28;20139;-81
2022/07/11 05:13:05;;;;;;;3.22;0.95;;;;;;;;;;5058820;28;20086;-81
2022/07/11 05:15:31;;;;;;;2.88;1.20;;;;;;;;;;5060066;28;20032;-81
2022/07/11 05:17:57;;;;;;;2.60;0.93;;;;;;;;;;5058870;28;20025;-81
2022/07/11 05:20:23;;;;;;;3.03;1.05;;;;;;;;;;5059881;28;20078;-81
2022/07/11 05:22:49;;;;;;;5.97;1.20;;;;;;;;;;5059729;28;20029;-81
2022/07/11 05:25:15;;;;;;;2.75;0.85;;;;;;;;;;5059721;28;20524;-81
2022/07/11 05:27:41;;;;;;;6.97;1.10;;;;;;;;;;5059613;28;20108;-80
2022/07/11 05:30:07;;;;;;;4.88;1.17;;;;;;;;;;5059496;28;20407;-81
2022/07/11 05:32:34;;;;;;;2.75;1.05;;;;;;;;;;5059599;28;20429;-81
2022/07/11 05:35:02;;;;;;;3.75;1.58;;;;;;;;;;5059412;28;20028;-81
2022/07/11 05:37:28;;;;;;;2.88;0.93;;;;;;;;;;5059589;28;20025;-81
2022/07/11 05:39:54;;;;;;;3.78;1.10;;;;;;;;;;5059495;28;20035;-81
2022/07/11 05:42:20;;;;;;;3.15;1.00;;;;;;;;;;5059265;28;20025;-81
2022/07/11 05:44:46;;;;;;;4.60;1.10;;;;;;;;;;5058240;28;20028;-81
2022/07/11 05:47:12;;;;;;;3.50;1.30;;;;;;;;;;5059247;28;20021;-81
2022/07/11 05:49:38;;;;;;;7.15;1.20;;;;;;;;;;5058166;28;20119;-81
2022/07/11 05:52:04;;;;;;;3.47;1.42;;;;;;;;;;5057877;28;20472;-81
2022/07/11 05:54:30;;;;;;;2.63;1.25;;;;;;;;;;5059249;28;20025;-80
2022/07/11 05:56:56;;;;;;;3.33;1.13;;;;;;;;;;5059267;28;20025;-81
2022/07/11 05:59:22;;;;;;;7.05;1.20;;;;;;;;;;5059107;28;20052;-81
2022/07/11 06:01:48;;;;;;;5.85;1.20;;;;;;;;;;5058681;28;20041;-82
2022/07/11 06:04:14;;;;;;;2.92;1.15;;;;;;;;;;5059147;28;20021;-82
2022/07/11 06:06:41;;;;;;;3.67;1.30;;;;;;;;;;5057997;28;20427;-81
2022/07/11 06:09:07;;;;;;;3.05;1.33;;;;;;;;;;5058846;28;20078;-81
2022/07/11 06:11:33;;;;;;;8.40;1.80;;;;;;;;;;5057735;28;20029;-81
2022/07/11 06:13:59;;;;;;;5.75;1.30;;;;;;;;;;5058637;28;20086;-81
2022/07/11 06:16:25;;;;;;;4.60;1.02;;;;;;;;;;5058655;28;20037;-81
2022/07/11 06:18:52;;;;;;;2.60;1.17;;;;;;;;;;5058850;28;20025;-81
2022/07/11 06:21:20;;;;;;;4.38;1.20;;;;;;;;;;5058617;28;20049;-82
2022/07/11 06:23:46;;;;;;;4.70;1.30;;;;;;;;;;5058943;28;20033;-81
2022/07/11 06:26:12;;;;;;;4.18;1.30;;;;;;;;;;5057693;28;20083;-81
2022/07/11 06:28:39;;;;;;;4.88;1.25;;;;;;;;;;5058633;28;20049;-81
2022/07/11 06:31:05;;;;;;;4.07;1.50;;;;;;;;;;5058769;28;20037;-81
2022/07/11 06:33:31;;;;;;;6.75;1.48;;;;;;;;;;5057480;28;20035;-81
2022/07/11 06:35:57;;;;;;;4.57;1.65;;;;;;;;;;5058502;28;20104;-81
2022/07/11 06:38:23;;;;;;;3.47;1.25;;;;;;;;;;5058484;28;20025;-81
2022/07/11 06:40:49;;;;;;;3.75;1.20;;;;;;;;;;5058063;28;20116;-81
2022/07/11 06:43:15;;;;;;;5.65;1.35;;;;;;;;;;5058261;28;20021;-81
2022/07/11 06:45:41;;;;;;;4.03;2.20;;;;;;;;;;5058114;28;20029;-81
2022/07/11 06:48:08;;;;;;;3.17;1.00;;;;;;;;;;5058120;28;20021;-81
2022/07/11 06:50:34;;;;;;;5.43;1.38;;;;;;;;;;5058206;28;20045;-81
2022/07/11 06:53:00;;;;;;;4.43;1.20;;;;;;;;;;5058252;28;20091;-81
2022/07/11 06:55:26;;;;;;;2.67;1.05;;;;;;;;;;5057697;28;20052;-81
2022/07/11 06:57:52;;;;;;;4.20;1.38;;;;;;;;;;5058110;28;20108;-81
2022/07/11 07:00:18;;;;;;;4.35;1.42;;;;;;;;;;5057639;28;20080;-81
2022/07/11 07:02:45;;;;;;;2.38;0.93;;;;;;;;;;5056899;28;20121;-81
2022/07/11 07:05:11;;;;;;;2.63;1.30;;;;;;;;;;5057777;28;20096;-81
2022/07/11 07:07:37;;;;;;;3.67;0.90;;;;;;;;;;5057865;28;20353;-81
2022/07/11 07:10:03;;;;;;;2.88;0.73;;;;;;;;;;5056621;28;20314;-81
2022/07/11 07:12:29;;;;;;;3.78;0.98;;;;;;;;;;5057495;28;20071;-81
2022/07/11 07:14:55;;;;;;;5.40;1.30;;;;;;;;;;5057597;28;20112;-81
2022/07/11 07:17:21;;;;;;;3.05;0.80;;;;;;;;;;5057875;28;20284;-82
2022/07/11 07:19:47;;;;;;;1.98;0.80;;;;;;;;;;5057460;28;20059;-81
2022/07/11 07:22:16;;;;;;;1.75;0.95;;;;;;;;;;5056736;28;20136;-82
2022/07/11 07:24:45;;;;;;;3.28;0.82;;;;;;;;;;5057493;28;20017;-82
2022/07/11 07:27:12;;;;;;;1.50;0.80;;;;;;;;;;5057465;28;20032;-81
2022/07/11 07:29:38;;;;;;;4.22;0.90;;;;;;;;;;5056176;28;20044;-81
2022/07/11 07:32:05;;;;;;;2.45;0.90;;;;;;;;;;5057012;28;20021;-81
2022/07/11 07:34:32;;;;;;;2.60;0.82;;;;;;;;;;5057038;28;20132;-81
2022/07/11 07:36:58;;;;;;;6.75;1.40;;;;;;;;;;5057193;28;20036;-82
2022/07/11 07:39:24;;;;;;;2.05;0.80;;;;;;;;;;5057223;28;20102;-81
2022/07/11 07:41:50;;;;;;;5.78;1.00;;;;;;;;;;5057259;28;20051;-82
2022/07/11 07:44:16;;;;;;;4.65;2.42;;;;;;;;;;5057244;28;20057;-82
2022/07/11 07:46:42;;;;;;;2.72;0.93;;;;;;;;;;5057404;28;20036;-81
2022/07/11 07:49:08;;;;;;;5.07;1.70;;;;;;;;;;5055990;28;20035;-81
2022/07/11 07:51:35;;;;;;;3.00;1.17;;;;;;;;;;5057193;28;20040;-82
2022/07/11 07:54:01;;;;;;;5.05;1.10;;;;;;;;;;5057309;28;20109;-82
2022/07/11 07:56:28;;;;;;;4.28;0.90;;;;;;;;;;5056929;28;20066;-81
2022/07/11 07:58:54;;;;;;;3.03;1.10;;;;;;;;;;5056709;28;20025;-81
2022/07/11 08:01:35;;;;;;;4.18;1.30;;;;;;;;;;5056643;28;20040;-82
2022/07/11 08:04:05;;;;;;;2.83;1.38;;;;;;;;;;5057159;28;20029;-81
2022/07/11 08:06:31;;;;;;;4.07;0.82;;;;;;;;;;5048040;28;20025;-81
2022/07/11 08:08:58;;;;;;;2.78;0.88;;;;;;;;;;5047665;28;20674;-81
2022/07/11 08:11:24;;;;;;;3.20;0.93;;;;;;;;;;5048666;28;20032;-81
2022/07/11 08:13:50;;;;;;;1.52;0.73;;;;;;;;;;5056761;28;20418;-82
2022/07/11 08:16:16;;;;;;;6.35;1.25;;;;;;;;;;5056994;28;20029;-82
2022/07/11 08:18:43;;;;;;;6.80;1.25;;;;;;;;;;5056877;28;20029;-82
2022/07/11 08:21:09;;;;;;;7.85;0.73;;;;;;;;;;5056710;28;20334;-81
2022/07/11 08:23:35;;;;;;;3.92;1.23;;;;;;;;;;5055964;28;20029;-82
2022/07/11 08:26:01;;;;;;;2.47;1.00;;;;;;;;;;5056703;28;20021;-81
2022/07/11 08:28:27;;;;;;;5.68;1.25;;;;;;;;;;5056987;28;20041;-81
2022/07/11 08:30:53;;;;;;;5.90;0.98;;;;;;;;;;5056812;28;20398;-81
2022/07/11 08:33:19;;;;;;;2.80;0.90;;;;;;;;;;5056745;28;20108;-81
2022/07/11 08:35:45;;;;;;;4.05;0.90;;;;;;;;;;5057235;28;20113;-86
2022/07/11 08:38:12;;;;;;;4.88;1.02;;;;;;;;;;5057326;28;20143;-88
2022/07/11 08:40:38;;;;;;;7.05;1.10;;;;;;;;;;5057048;28;20477;-88
2022/07/11 08:43:13;;;;;;;2.95;0.80;;;;;;;;;;5057156;28;20112;-88
2022/07/11 08:45:39;;;;;;;3.10;0.90;;;;;;;;;;5061221;28;20028;-89
2022/07/11 08:48:06;;;;;;;2.22;1.00;;;;;;;;;;5061126;28;20411;-88
2022/07/11 08:50:32;;;;;;;2.83;1.02;;;;;;;;;;5061025;28;20027;-88
2022/07/11 08:52:58;;;;;;;4.43;0.82;;;;;;;;;;5060274;28;20056;-88
2022/07/11 08:55:25;;;;;;;6.55;1.35;;;;;;;;;;5060773;28;20322;-88
2022/07/11 08:57:51;;;;;;;1.75;1.00;;;;;;;;;;5060855;28;20077;-90
2022/07/11 09:00:19;;;;;;;3.92;0.85;;;;;;;;;;5060620;28;20441;-88
2022/07/11 09:02:45;;;;;;;5.38;1.60;;;;;;;;;;5060858;28;20112;-88
2022/07/11 09:05:11;;;;;;;5.75;1.17;;;;;;;;;;5059859;28;20116;-88
2022/07/11 09:07:45;;;;;;;8.27;1.02;;;;;;;;;;5059844;28;20419;-89
2022/07/11 09:10:12;;;;;;;3.70;1.10;;;;;;;;;;5060321;28;20048;-88
2022/07/11 09:12:39;;;;;;;2.50;1.15;;;;;;;;;;5060452;28;20027;-88
2022/07/11 09:15:05;;;;;;;5.68;1.48;;;;;;;;;;5059581;28;20052;-88
2022/07/11 09:17:32;;;;;;;6.07;0.98;;;;;;;;;;5059378;28;20025;-88
2022/07/11 09:19:58;;;;;;;3.13;0.98;;;;;;;;;;5060264;28;20124;-88
2022/07/11 09:25:19;;;;;;;6.75;1.23;;;;;;;;;;5060653;28;20112;-88
2022/07/11 09:27:50;;;;;;;5.18;1.00;;;;;;;;;;5060501;28;20029;-88
2022/07/11 09:30:19;;;;;;;10.52;1.50;;;;;;;;;;5060269;28;20037;-88
2022/07/11 09:32:55;;;;;;;4.68;1.10;;;;;;;;;;5060230;28;20063;-88
2022/07/11 09:35:22;;;;;;;4.20;0.70;;;;;;;;;;5059164;28;20031;-89
2022/07/11 09:37:48;;;;;;;4.22;1.30;;;;;;;;;;5060321;28;20029;-88
2022/07/11 09:40:15;;;;;;;8.80;1.10;;;;;;;;;;5060318;28;20021;-88
2022/07/11 09:42:50;;;;;;;3.70;0.90;;;;;;;;;;5059252;28;20028;-89
2022/07/11 09:45:17;;;;;;;4.03;1.02;;;;;;;;;;5059945;28;20096;-88
2022/07/11 09:47:50;;;;;;;5.97;0.90;;;;;;;;;;5059543;28;20032;-88
2022/07/11 09:50:19;;;;;;;2.58;0.82;;;;;;;;;;5059812;28;20028;-88
2022/07/11 09:53:18;;;;;;;4.05;0.93;;;;;;;;;;5058882;28;20025;-88
2022/07/11 09:55:46;;;;;;;3.08;1.00;;;;;;;;;;5041235;28;20040;-89
2022/07/11 09:58:13;;;;;;;6.32;1.17;;;;;;;;;;5058242;28;20041;-88
2022/07/11 10:00:40;;;;;;;3.28;1.10;;;;;;;;;;5057902;28;20143;-88
2022/07/11 10:03:07;;;;;;;3.90;1.00;;;;;;;;;;5041205;28;20029;-89
2022/07/11 10:05:33;;;;;;;4.40;2.10;;;;;;;;;;5057849;28;20060;-88
2022/07/11 10:07:59;;;;;;;6.85;2.30;;;;;;;;;;5057928;28;20017;-88
2022/07/11 10:10:26;;;;;;;3.33;1.23;;;;;;;;;;5057914;28;20370;-86
2022/07/11 10:12:53;;;;;;;3.75;1.50;;;;;;;;;;5041283;28;20032;-89
2022/07/11 10:15:30;;;;;;;2.92;1.00;;;;;;;;;;5041295;28;20108;-88
2022/07/11 10:18:16;;;;;;;4.10;1.13;;;;;;;;;;5057880;28;20057;-88
2022/07/11 10:20:42;;;;;;;3.80;0.88;;;;;;;;;;5057578;28;20370;-89
2022/07/11 10:23:11;;;;;;;7.97;1.83;;;;;;;;;;5057892;28;20021;-88
2022/07/11 10:25:46;;;;;;;5.03;1.15;;;;;;;;;;5057654;28;20033;-88
2022/07/11 10:28:12;;;;;;;3.40;1.17;;;;;;;;;;5057540;28;20021;-88
2022/07/11 10:30:44;;;;;;;2.65;0.95;;;;;;;;;;5041809;28;20051;-88
2022/07/11 10:33:10;;;;;;;2.42;0.80;;;;;;;;;;5058869;28;20029;-87
2022/07/11 10:35:40;;;;;;;2.30;0.77;;;;;;;;;;5059109;28;20025;-89
2022/07/11 10:38:06;;;;;;;86.50;6.20;;;;;;;;;;5058132;28;20029;-88
2022/07/11 10:40:47;;;;;;;8.00;1.42;;;;;;;;;;5058674;28;20025;-88
2022/07/11 10:43:15;;;;;;;9.60;1.20;;;;;;;;;;5057884;28;20391;-90
2022/07/11 10:46:04;;;;;;;3.78;1.17;;;;;;;;;;5058832;28;20108;-89
2022/07/11 10:48:31;;;;;;;4.32;1.08;;;;;;;;;;5055103;28;20029;-89
2022/07/11 10:51:03;;;;;;;12.07;1.50;;;;;;;;;;5058774;28;20029;-89
2022/07/11 10:53:32;;;;;;;3.08;0.70;;;;;;;;;;5058860;28;20044;-89
2022/07/11 10:56:13;;;;;;;11.35;1.40;;;;;;;;;;5058552;28;20032;-89
2022/07/11 10:58:43;;;;;;;7.13;1.05;;;;;;;;;;5058686;28;20311;-89
2022/07/11 11:01:13;;;;;;;8.90;1.15;;;;;;;;;;5058193;28;20059;-89
2022/07/11 11:03:39;;;;;;;5.50;1.00;;;;;;;;;;5057536;28;20319;-90
2022/07/11 11:06:06;;;;;;;2.38;0.85;;;;;;;;;;5057957;28;20032;-90
2022/07/11 11:08:32;;;;;;;2.70;0.90;;;;;;;;;;5058329;28;20407;-89
2022/07/11 11:10:59;;;;;;;4.65;0.93;;;;;;;;;;5058557;28;20028;-90
2022/07/11 11:13:25;;;;;;;6.20;1.05;;;;;;;;;;5058406;28;20020;-90
2022/07/11 11:15:54;;;;;;;13.73;7.28;;;;;;;;;;5058347;28;20342;-93
2022/07/11 11:18:23;;;;;;;2.78;0.95;;;;;;;;;;5057131;28;20025;-93
2022/07/11 11:21:02;;;;;;;3.78;0.90;;;;;;;;;;5058227;28;20112;-92
2022/07/11 11:23:29;;;;;;;3.58;0.80;;;;;;;;;;5057122;28;20060;-91
2022/07/11 11:25:55;;;;;;;7.32;1.10;;;;;;;;;;5058096;28;20047;-92
2022/07/11 11:28:22;;;;;;;3.10;0.70;;;;;;;;;;5058239;28;20116;-93
2022/07/11 11:30:54;;;;;;;3.58;0.80;;;;;;;;;;5058082;28;20344;-92
2022/07/11 11:33:21;;;;;;;3.95;0.77;;;;;;;;;;5057898;28;20109;-91
2022/07/11 11:35:59;;;;;;;2.70;1.02;;;;;;;;;;5056965;28;20025;-91
2022/07/11 11:38:25;;;;;;;2.95;0.95;;;;;;;;;;5057040;28;20021;-92
2022/07/11 11:40:51;;;;;;;3.90;0.93;;;;;;;;;;5057765;28;20025;-92
2022/07/11 11:43:23;;;;;;;6.82;1.10;;;;;;;;;;5057927;28;20407;-93
2022/07/11 11:45:50;;;;;;;2.10;0.63;;;;;;;;;;5056732;28;20056;-92
2022/07/11 11:48:29;;;;;;;3.42;1.23;;;;;;;;;;5057614;28;20024;-92
2022/07/11 11:51:02;;;;;;;3.47;0.98;;;;;;;;;;5056748;28;20032;-92
2022/07/11 11:53:29;;;;;;;4.25;1.00;;;;;;;;;;5057782;28;20025;-92
2022/07/11 11:55:55;;;;;;;5.07;1.00;;;;;;;;;;5057768;28;20036;-93
2022/07/11 11:58:21;;;;;;;5.45;1.00;;;;;;;;;;5057470;28;20060;-93
2022/07/11 12:00:57;;;;;;;3.33;1.02;;;;;;;;;;5056375;28;20052;-92
2022/07/11 12:03:24;;;;;;;9.00;1.52;;;;;;;;;;5057700;28;20025;-92
2022/07/11 12:05:55;;;;;;;4.80;0.73;;;;;;;;;;5056683;28;20048;-93
2022/07/11 12:08:27;;;;;;;5.80;1.67;;;;;;;;;;5056202;28;20040;-92
2022/07/11 12:10:57;;;;;;;3.65;0.70;;;;;;;;;;5057398;28;20134;-92
2022/07/11 12:13:23;;;;;;;7.93;0.90;;;;;;;;;;5056519;28;20415;-93
2022/07/11 12:18:37;;;;;;;5.75;1.08;;;;;;;;;;5061346;28;20075;-91
2022/07/11 12:21:13;;;;;;;2.80;0.80;;;;;;;;;;5061465;28;20394;-92
2022/07/11 12:23:39;;;;;;;5.75;1.40;;;;;;;;;;5060621;28;20025;-93
2022/07/11 12:26:06;;;;;;;7.55;1.45;;;;;;;;;;5061510;28;20429;-92
2022/07/11 12:28:35;;;;;;;6.07;1.13;;;;;;;;;;5061197;28;20021;-81
2022/07/11 12:31:01;;;;;;;6.88;1.30;;;;;;;;;;5048079;28;20033;-81
2022/07/11 12:33:28;;;;;;;5.38;0.93;;;;;;;;;;5040612;28;20025;-81
2022/07/11 12:36:01;;;;;;;4.45;0.85;;;;;;;;;;5040804;28;20032;-80
2022/07/11 12:38:48;;;;;;;3.38;0.80;;;;;;;;;;5039629;28;20049;-81
2022/07/11 12:41:14;;;;;;;4.65;0.95;;;;;;;;;;5040493;28;20411;-81
2022/07/11 12:46:30;;;;;;;5.63;0.90;;;;;;;;;;5040756;28;20037;-82
2022/07/11 12:48:56;;;;;;;4.32;0.65;;;;;;;;;;5040299;28;20101;-82
2022/07/11 12:51:32;;;;;;;2.28;0.70;;;;;;;;;;5039678;28;20021;-82
2022/07/11 12:54:02;;;;;;;2.28;0.80;;;;;;;;;;5040461;28;20423;-82
2022/07/11 12:56:28;;;;;;;3.03;1.02;;;;;;;;;;5040555;28;20032;-81
2022/07/11 12:58:54;;;;;;;5.93;1.13;;;;;;;;;;5040530;28;20084;-81
2022/07/11 13:01:21;;;;;;;5.38;0.82;;;;;;;;;;5039966;28;20268;-81
2022/07/11 13:03:49;;;;;;;3.40;1.60;;;;;;;;;;5040439;28;20021;-81
2022/07/11 13:06:15;;;;;;;5.38;0.90;;;;;;;;;;5039282;28;20025;-81
2022/07/11 13:08:42;;;;;;;5.25;0.82;;;;;;;;;;5038994;28;20374;-81
2022/07/11 13:11:19;;;;;;;3.28;1.00;;;;;;;;;;5040211;28;20045;-81
2022/07/11 13:13:49;;;;;;;8.25;0.70;;;;;;;;;;5039960;28;20411;-81
2022/07/11 13:16:15;;;;;;;3.85;0.90;;;;;;;;;;5040054;28;20064;-81
2022/07/11 13:18:41;;;;;;;3.13;0.80;;;;;;;;;;5038988;28;20411;-82
2022/07/11 13:21:08;;;;;;;4.30;0.90;;;;;;;;;;5039927;28;20030;-81
2022/07/11 13:23:35;;;;;;;3.88;1.33;;;;;;;;;;5039942;28;20021;-82
2022/07/11 13:26:01;;;;;;;7.60;1.25;;;;;;;;;;5040024;28;20364;-82
2022/07/11 13:28:27;;;;;;;4.75;1.23;;;;;;;;;;5039118;28;20022;-82
2022/07/11 13:30:53;;;;;;;2.00;0.77;;;;;;;;;;5039872;28;20036;-82
2022/07/11 13:33:22;;;;;;;4.47;0.90;;;;;;;;;;5039729;28;20464;-82
2022/07/11 13:35:49;;;;;;;2.97;0.80;;;;;;;;;;5038646;28;20443;-82
2022/07/11 13:38:15;;;;;;;3.92;0.95;;;;;;;;;;5039735;28;20025;-82
2022/07/11 13:40:42;;;;;;;5.60;1.00;;;;;;;;;;5038282;28;20080;-82
2022/07/11 13:43:09;;;;;;;4.93;1.00;;;;;;;;;;5039482;28;20044;-81
2022/07/11 13:45:35;;;;;;;6.53;1.20;;;;;;;;;;5039504;28;20029;-82
2022/07/11 13:48:04;;;;;;;5.00;1.00;;;;;;;;;;5039438;28;20026;-82
2022/07/11 13:50:30;;;;;;;2.90;0.90;;;;;;;;;;5039587;28;20029;-82
2022/07/11 13:52:56;;;;;;;9.07;1.05;;;;;;;;;;5038358;28;20022;-81
2022/07/11 13:55:23;;;;;;;2.55;0.90;;;;;;;;;;5039307;28;20379;-82
2022/07/11 13:57:53;;;;;;;5.45;0.93;;;;;;;;;;5039311;28;20091;-81
2022/07/11 14:00:19;;;;;;;4.28;0.85;;;;;;;;;;5038128;28;20045;-81
2022/07/11 14:02:47;;;;;;;4.88;0.82;;;;;;;;;;5038797;28;20055;-81
2022/07/11 14:05:14;;;;;;;5.80;0.90;;;;;;;;;;5039376;28;20106;-81
2022/07/11 14:07:40;;;;;;;7.80;1.92;;;;;;;;;;5038227;28;20445;-81
2022/07/11 14:10:06;;;;;;;6.53;0.80;;;;;;;;;;5039125;28;20025;-81
2022/07/11 14:12:33;;;;;;;5.40;0.98;;;;;;;;;;5038022;28;20061;-82
2022/07/11 14:14:59;;;;;;;5.65;1.10;;;;;;;;;;5039012;28;20029;-81
2022/07/11 14:17:25;;;;;;;3.72;1.05;;;;;;;;;;5037784;28;20040;-81
2022/07/11 14:19:52;;;;;;;2.75;0.77;;;;;;;;;;5038733;28;20407;-81
2022/07/11 14:22:18;;;;;;;6.55;1.10;;;;;;;;;;5038711;28;20033;-82
2022/07/11 14:24:44;;;;;;;3.58;0.90;;;;;;;;;;5038748;28;20018;-82
2022/07/11 14:27:10;;;;;;;5.35;0.75;;;;;;;;;;5037661;28;20063;-82
2022/07/11 14:29:37;;;;;;;3.90;1.08;;;;;;;;;;5038653;28;20072;-81
2022/07/11 14:32:03;;;;;;;4.18;0.88;;;;;;;;;;5037688;28;20355;-82
2022/07/11 14:34:29;;;;;;;4.35;0.70;;;;;;;;;;5038591;28;20285;-81
2022/07/11 14:36:55;;;;;;;3.47;0.90;;;;;;;;;;5038750;28;20036;-82
2022/07/11 14:39:21;;;;;;;3.58;1.00;;;;;;;;;;5038543;28;20063;-82
2022/07/11 14:41:47;;;;;;;5.07;0.80;;;;;;;;;;5036340;28;20025;-82
2022/07/11 14:44:14;;;;;;;4.18;1.00;;;;;;;;;;5038315;28;20022;-82
2022/07/11 14:46:41;;;;;;;3.95;0.70;;;;;;;;;;5038543;28;20071;-81
2022/07/11 14:49:08;;;;;;;4.95;0.77;;;;;;;;;;5038525;28;20033;-81
2022/07/11 14:51:36;;;;;;;4.22;0.90;;;;;;;;;;5038321;28;20419;-82
2022/07/11 14:54:02;;;;;;;3.53;0.88;;;;;;;;;;5048285;28;20342;-82
2022/07/11 14:56:29;;;;;;;2.35;0.82;;;;;;;;;;5057819;28;20025;-81
2022/07/11 14:58:55;;;;;;;4.35;0.90;;;;;;;;;;5057867;28;20021;-82
2022/07/11 15:01:21;;;;;;;3.53;0.90;;;;;;;;;;5057796;28;20049;-81
2022/07/11 15:03:47;;;;;;;5.18;0.90;;;;;;;;;;5056850;28;20033;-81
2022/07/11 15:06:14;;;;;;;1.65;0.68;;;;;;;;;;5057969;28;20033;-81
2022/07/11 15:14:11;;;;;;;3.45;0.70;;;;;;;;;;5057736;28;20036;-81
2022/07/11 15:16:37;;;;;;;5.88;1.13;;;;;;;;;;5057475;28;20020;-81
2022/07/11 15:19:07;;;;;;;4.43;0.93;;;;;;;;;;5056744;28;20033;-81